Time;durP1;ratioP1;P1;durP2;ratioP2;P2;SDS_P1;SDS_P2;PMS_P1;PMS_P2;Temp;Humidity;BMP_temperature;BMP_pressure;BME280_temperature;BME280_humidity;BME280_pressure;Samples;Min_cycle;Max_cycle;Signal;HPM_P1;HPM_P2
2023/08/27 00:02:23;;;;;;;7.70;6.35;;;15.20;99.90;;;;;;6138808;23;20013;-86
2023/08/27 00:04:49;;;;;;;8.95;6.18;;;15.20;99.90;;;;;;6137621;23;20013;-88
2023/08/27 00:07:18;;;;;;;7.15;6.22;;;15.10;99.90;;;;;;6089218;23;20031;-86
2023/08/27 00:09:49;;;;;;;8.48;6.03;;;15.10;99.90;;;;;;6136719;23;20056;-88
2023/08/27 00:12:20;;;;;;;7.47;5.65;;;15.10;99.90;;;;;;6113625;23;20009;-87
2023/08/27 00:14:49;;;;;;;7.18;5.50;;;15.10;99.90;;;;;;6137015;23;20004;-87
2023/08/27 00:17:19;;;;;;;7.50;5.95;;;15.10;99.90;;;;;;6111859;23;20004;-87
2023/08/27 00:19:50;;;;;;;7.45;5.70;;;15.10;99.90;;;;;;6113455;23;20028;-87
2023/08/27 00:22:30;;;;;;;7.57;5.60;;;15.10;99.90;;;;;;6117005;23;20037;-87
2023/08/27 00:24:59;;;;;;;7.00;5.07;;;15.10;99.90;;;;;;6136258;23;20378;-87
2023/08/27 00:27:27;;;;;;;7.15;5.70;;;15.10;99.90;;;;;;6160576;23;20448;-87
2023/08/27 00:29:56;;;;;;;7.15;5.68;;;15.10;99.90;;;;;;6111548;23;20005;-85
2023/08/27 00:32:31;;;;;;;;;;;15.00;99.90;;;;;;6187399;23;20270;-87
2023/08/27 00:35:03;;;;;;;8.82;5.40;;;15.00;99.90;;;;;;6162286;23;19904;-87
2023/08/27 00:37:30;;;;;;;7.88;6.38;;;15.00;99.90;;;;;;6137429;23;20264;-86
2023/08/27 00:40:00;;;;;;;7.20;5.85;;;14.90;99.90;;;;;;6113366;23;20417;-87
2023/08/27 00:42:35;;;;;;;9.63;6.30;;;15.00;99.90;;;;;;6113180;23;20024;-88
2023/08/27 00:45:22;;;;;;;9.77;6.30;;;15.00;99.90;;;;;;6117701;23;20011;-86
2023/08/27 00:47:56;;;;;;;10.32;6.10;;;15.00;99.90;;;;;;6115707;23;20005;-87
2023/08/27 00:50:31;;;;;;;9.57;6.80;;;14.90;99.90;;;;;;6137893;23;20020;-86
2023/08/27 00:53:03;;;;;;;8.13;5.45;;;14.90;99.90;;;;;;6113461;23;20009;-86
2023/08/27 00:55:29;;;;;;;7.18;5.90;;;14.90;99.90;;;;;;6162151;23;20370;-86
2023/08/27 00:58:05;;;;;;;8.38;6.22;;;14.90;99.90;;;;;;6113854;23;20037;-86
2023/08/27 01:00:46;;;;;;;9.65;6.00;;;14.90;99.90;;;;;;6137188;23;20401;-88
2023/08/27 01:03:12;;;;;;;10.07;6.80;;;14.90;99.90;;;;;;6161913;23;20082;-89
2023/08/27 01:05:44;;;;;;;9.10;6.78;;;14.80;99.90;;;;;;6114004;23;20017;-86
2023/08/27 01:08:25;;;;;;;8.07;6.05;;;14.90;99.90;;;;;;6114025;23;20334;-87
2023/08/27 01:11:08;;;;;;;7.72;6.20;;;14.90;99.90;;;;;;6137481;23;20279;-87
2023/08/27 01:13:59;;;;;;;9.68;6.50;;;14.80;99.90;;;;;;6137122;23;20052;-86
2023/08/27 01:16:36;;;;;;;9.90;6.65;;;14.80;99.90;;;;;;6137400;23;20005;-87
2023/08/27 01:19:06;;;;;;;8.98;6.68;;;14.80;99.90;;;;;;6161574;23;20029;-87
2023/08/27 01:21:39;;;;;;;9.68;7.57;;;14.80;99.90;;;;;;6138672;23;20136;-86
2023/08/27 01:24:19;;;;;;;9.85;7.10;;;14.80;99.90;;;;;;6114696;23;20020;-86
2023/08/27 01:26:54;;;;;;;8.50;6.78;;;14.80;99.90;;;;;;6137098;23;20088;-86
2023/08/27 01:29:45;;;;;;;7.50;6.70;;;14.90;99.90;;;;;;6137145;23;20096;-86
2023/08/27 01:32:32;;;;;;;7.97;6.30;;;14.80;99.90;;;;;;6137567;23;20009;-86
2023/08/27 01:35:04;;;;;;;8.05;6.55;;;14.80;99.90;;;;;;6161754;23;20009;-87
2023/08/27 01:37:33;;;;;;;11.50;7.70;;;14.80;99.90;;;;;;6137388;23;20059;-86
2023/08/27 01:40:05;;;;;;;9.70;6.97;;;14.80;99.90;;;;;;6089552;23;20368;-86
2023/08/27 01:42:36;;;;;;;8.70;6.75;;;14.80;99.90;;;;;;6161639;23;20036;-86
2023/08/27 01:45:07;;;;;;;8.75;6.95;;;14.80;99.90;;;;;;6112967;23;20063;-87
2023/08/27 01:47:36;;;;;;;11.80;6.93;;;14.80;99.90;;;;;;6161380;23;20001;-88
2023/08/27 01:50:05;;;;;;;9.48;7.45;;;14.70;99.90;;;;;;6113942;23;20013;-86
2023/08/27 01:52:35;;;;;;;7.72;6.93;;;14.80;99.90;;;;;;6139251;23;20009;-86
2023/08/27 01:55:05;;;;;;;8.60;7.43;;;14.70;99.90;;;;;;6164530;23;20001;-86
2023/08/27 01:57:31;;;;;;;9.10;7.70;;;14.70;99.90;;;;;;6163450;23;20005;-86
2023/08/27 02:00:00;;;;;;;10.82;7.93;;;14.70;99.90;;;;;;6114699;23;20016;-87
2023/08/27 02:02:26;;;;;;;12.20;7.60;;;14.70;99.90;;;;;;6114358;23;20351;-86
2023/08/27 02:04:58;;;;;;;10.20;7.50;;;14.70;99.90;;;;;;6138933;23;20088;-86
2023/08/27 02:07:27;;;;;;;10.48;7.70;;;14.70;99.90;;;;;;6115282;23;20401;-86
2023/08/27 02:09:53;;;;;;;9.43;6.97;;;14.80;99.90;;;;;;6163153;23;20009;-86
2023/08/27 02:12:24;;;;;;;9.07;7.25;;;14.70;99.90;;;;;;6139244;23;20009;-87
2023/08/27 02:14:52;;;;;;;10.30;7.10;;;14.80;99.90;;;;;;6164144;23;20005;-86
2023/08/27 02:17:21;;;;;;;10.65;7.60;;;14.80;99.90;;;;;;6139036;23;20082;-88
2023/08/27 02:19:48;;;;;;;10.55;7.65;;;14.80;99.90;;;;;;6139051;23;20015;-87
2023/08/27 02:22:20;;;;;;;9.52;7.40;;;14.80;99.90;;;;;;6140447;23;20084;-92
2023/08/27 02:24:52;;;;;;;9.88;7.47;;;14.80;99.90;;;;;;6139475;23;20067;-86
2023/08/27 02:27:28;;;;;;;10.27;7.53;;;14.80;99.90;;;;;;6117306;23;20075;-86
2023/08/27 02:29:57;;;;;;;9.13;7.65;;;14.80;99.90;;;;;;6114820;23;20005;-86
2023/08/27 02:32:28;;;;;;;9.45;7.82;;;14.80;99.90;;;;;;6163784;23;20004;-87
2023/08/27 02:34:55;;;;;;;9.55;7.40;;;14.80;99.90;;;;;;6114956;23;20040;-87
2023/08/27 02:37:24;;;;;;;9.10;7.35;;;14.70;99.90;;;;;;6138981;23;20001;-86
2023/08/27 02:39:55;;;;;;;11.82;8.18;;;14.80;99.90;;;;;;6138630;23;20084;-85
2023/08/27 02:42:33;;;;;;;;;;;;;;;;;;;;;
2023/08/27 02:45:14;;;;;;;9.88;7.80;;;14.70;99.90;;;;;;6163342;23;20390;-86
2023/08/27 02:47:45;;;;;;;8.35;7.15;;;14.70;99.90;;;;;;6113638;23;20041;-88
2023/08/27 02:50:38;;;;;;;9.68;7.65;;;14.70;99.90;;;;;;6127573;23;20013;-86
2023/08/27 02:53:07;;;;;;;9.88;7.78;;;14.70;99.90;;;;;;6115167;23;20013;-90
2023/08/27 02:55:35;;;;;;;11.23;8.48;;;14.70;99.90;;;;;;6139003;23;20017;-86
2023/08/27 02:58:06;;;;;;;9.13;8.23;;;14.70;99.90;;;;;;6114443;23;20009;-87
2023/08/27 03:00:35;;;;;;;10.70;8.50;;;14.60;99.90;;;;;;6137045;23;20084;-87
2023/08/27 03:03:05;;;;;;;11.57;8.57;;;14.60;99.90;;;;;;6113951;23;20099;-88
2023/08/27 03:05:38;;;;;;;9.98;8.05;;;14.60;99.90;;;;;;6161908;23;20013;-86
2023/08/27 03:08:10;;;;;;;13.63;8.55;;;14.60;99.90;;;;;;6163307;23;20422;-87
2023/08/27 03:10:38;;;;;;;10.38;8.43;;;14.60;99.90;;;;;;6162396;23;20017;-87
2023/08/27 03:13:24;;;;;;;9.57;8.15;;;14.60;99.90;;;;;;6142220;23;20001;-87
2023/08/27 03:15:50;;;;;;;12.50;10.10;;;14.60;99.90;;;;;;6114073;23;20062;-86
2023/08/27 03:18:16;;;;;;;9.60;8.45;;;14.50;99.90;;;;;;6138297;23;20012;-86
2023/08/27 03:20:48;;;;;;;12.10;8.20;;;14.60;99.90;;;;;;6114269;23;20017;-86
2023/08/27 03:23:21;;;;;;;9.07;8.07;;;14.50;99.90;;;;;;6115600;23;20097;-87
2023/08/27 03:25:51;;;;;;;10.60;8.07;;;14.60;99.90;;;;;;6113699;23;20109;-87
2023/08/27 03:28:18;;;;;;;11.48;8.43;;;14.60;99.90;;;;;;6113425;23;20016;-87
2023/08/27 03:30:44;;;;;;;12.77;8.07;;;14.50;99.90;;;;;;6113483;23;20386;-87
2023/08/27 03:33:12;;;;;;;11.55;8.77;;;14.50;99.90;;;;;;6114658;23;20005;-87
2023/08/27 03:35:50;;;;;;;12.80;8.93;;;14.60;99.90;;;;;;6115011;23;20279;-86
2023/08/27 03:38:23;;;;;;;12.07;8.70;;;14.60;99.90;;;;;;6114176;23;20063;-86
2023/08/27 03:40:52;;;;;;;9.80;8.23;;;14.50;99.90;;;;;;6138055;23;20416;-88
2023/08/27 03:43:21;;;;;;;11.15;7.97;;;14.50;99.90;;;;;;6114673;23;20401;-86
2023/08/27 03:45:47;;;;;;;11.88;8.55;;;14.50;99.90;;;;;;6114020;23;20329;-86
2023/08/27 03:48:36;;;;;;;10.30;8.32;;;14.50;99.90;;;;;;6113530;23;20041;-87
2023/08/27 03:51:02;;;;;;;14.05;8.90;;;14.50;99.90;;;;;;6113471;23;20386;-86
2023/08/27 03:53:43;;;;;;;10.27;8.52;;;14.50;99.90;;;;;;6163241;23;20003;-87
2023/08/27 03:56:14;;;;;;;12.05;8.82;;;14.50;99.90;;;;;;6162961;23;20008;-86
2023/08/27 03:58:41;;;;;;;10.38;8.60;;;14.50;99.90;;;;;;6113289;23;20016;-86
2023/08/27 04:01:19;;;;;;;12.63;8.95;;;14.50;99.90;;;;;;6113518;23;20016;-87
2023/08/27 04:03:51;;;;;;;11.40;9.07;;;14.50;99.90;;;;;;6139577;23;20013;-86
2023/08/27 04:06:23;;;;;;;10.45;8.43;;;14.50;99.90;;;;;;6114215;23;20020;-86
2023/08/27 04:08:52;;;;;;;11.88;8.40;;;14.50;99.90;;;;;;6113181;23;20013;-86
2023/08/27 04:11:21;;;;;;;13.32;8.98;;;14.50;99.90;;;;;;6089826;23;20311;-87
2023/08/27 04:13:57;;;;;;;11.35;9.10;;;14.60;99.90;;;;;;6114371;23;20025;-87
2023/08/27 04:16:31;;;;;;;11.10;9.80;;;14.60;99.90;;;;;;6137076;23;20437;-86
2023/08/27 04:18:57;;;;;;;11.30;9.32;;;14.60;99.90;;;;;;6136322;23;20100;-87
2023/08/27 04:21:31;;;;;;;12.18;9.70;;;14.60;99.90;;;;;;6112790;23;20390;-86
2023/08/27 04:23:57;;;;;;;11.88;10.05;;;14.60;99.90;;;;;;6137160;23;20013;-86
2023/08/27 04:26:24;;;;;;;12.23;8.63;;;14.60;99.90;;;;;;6162124;23;20013;-87
2023/08/27 04:28:54;;;;;;;12.50;9.60;;;14.60;99.90;;;;;;6137578;23;20032;-87
2023/08/27 04:31:24;;;;;;;10.82;8.88;;;14.70;99.90;;;;;;6091345;23;20263;-86
2023/08/27 04:33:52;;;;;;;11.82;9.25;;;14.70;99.90;;;;;;6162586;23;20394;-87
2023/08/27 04:36:25;;;;;;;13.80;9.65;;;14.70;99.90;;;;;;6138098;23;20286;-86
2023/08/27 04:39:01;;;;;;;13.45;9.10;;;14.70;99.90;;;;;;6162808;23;20012;-86
2023/08/27 04:41:39;;;;;;;13.43;9.55;;;14.70;99.90;;;;;;6139435;23;20013;-89
2023/08/27 04:44:08;;;;;;;12.27;9.45;;;14.70;99.90;;;;;;6138299;23;20009;-87
2023/08/27 04:46:34;;;;;;;12.93;10.00;;;14.70;99.90;;;;;;6138021;23;20279;-86
2023/08/27 04:49:05;;;;;;;13.93;9.65;;;14.80;99.90;;;;;;6162064;23;20008;-87
2023/08/27 04:51:36;;;;;;;10.93;9.30;;;14.70;99.90;;;;;;6113450;23;20044;-86
2023/08/27 04:54:15;;;;;;;12.90;10.15;;;14.70;99.90;;;;;;6139617;23;20278;-86
2023/08/27 04:56:46;;;;;;;13.70;9.98;;;14.80;99.90;;;;;;6137971;23;20414;-87
2023/08/27 04:59:14;;;;;;;14.27;10.25;;;14.80;99.90;;;;;;6137357;23;20005;-87
2023/08/27 05:01:47;;;;;;;10.85;9.27;;;14.80;99.90;;;;;;6162549;23;20008;-87
2023/08/27 05:04:19;;;;;;;18.42;9.35;;;14.80;99.90;;;;;;6137139;23;20058;-87
2023/08/27 05:06:45;;;;;;;11.65;8.38;;;14.90;99.90;;;;;;6112919;23;20091;-87
2023/08/27 05:09:26;;;;;;;13.55;9.50;;;14.90;99.90;;;;;;6161916;23;20240;-87
2023/08/27 05:11:58;;;;;;;10.98;8.93;;;14.90;99.90;;;;;;6162133;23;20063;-87
2023/08/27 05:14:29;;;;;;;11.63;9.77;;;14.90;99.90;;;;;;6138975;23;20012;-87
2023/08/27 05:17:06;;;;;;;12.80;8.82;;;14.90;99.90;;;;;;6090263;23;20009;-87
2023/08/27 05:19:38;;;;;;;11.23;8.88;;;15.00;99.90;;;;;;6116050;23;20013;-86
2023/08/27 05:22:11;;;;;;;10.93;8.45;;;15.00;99.90;;;;;;6161712;23;20323;-90
2023/08/27 05:24:43;;;;;;;12.38;9.57;;;15.00;99.90;;;;;;6161545;23;20100;-87
2023/08/27 05:27:13;;;;;;;12.73;8.77;;;15.00;99.90;;;;;;6138205;23;20001;-87
2023/08/27 05:29:44;;;;;;;11.77;9.30;;;15.00;99.90;;;;;;6136636;23;20009;-87
2023/08/27 05:32:31;;;;;;;13.43;10.32;;;15.00;99.90;;;;;;6112749;23;20013;-87
2023/08/27 05:35:02;;;;;;;12.93;9.80;;;15.10;99.90;;;;;;6136991;23;20005;-88
2023/08/27 05:37:39;;;;;;;10.77;8.93;;;15.10;99.90;;;;;;6139265;23;20374;-88
2023/08/27 05:40:18;;;;;;;13.50;10.05;;;15.10;99.90;;;;;;6162840;23;20031;-88
2023/08/27 05:42:51;;;;;;;13.65;10.57;;;15.10;99.90;;;;;;6162688;23;20267;-88
2023/08/27 05:45:21;;;;;;;12.65;10.70;;;15.10;99.90;;;;;;6138184;23;20005;-88
2023/08/27 05:47:52;;;;;;;26.80;12.13;;;15.10;99.90;;;;;;6162463;23;20009;-87
2023/08/27 05:50:23;;;;;;;17.77;12.15;;;15.00;99.90;;;;;;6137443;23;20283;-87
2023/08/27 05:52:56;;;;;;;12.27;8.75;;;15.00;99.90;;;;;;6136406;23;20383;-88
2023/08/27 05:55:30;;;;;;;13.13;8.13;;;15.00;99.90;;;;;;6137118;23;20379;-86
2023/08/27 05:58:08;;;;;;;13.95;8.40;;;15.00;99.90;;;;;;6138405;23;20052;-86
2023/08/27 06:00:43;;;;;;;13.98;9.77;;;15.00;99.90;;;;;;6138211;23;20063;-86
2023/08/27 06:03:12;;;;;;;14.48;12.70;;;15.10;99.90;;;;;;6113281;23;20114;-88
2023/08/27 06:05:46;;;;;;;25.90;21.27;;;15.10;99.90;;;;;;6136665;23;20047;-87
2023/08/27 06:08:20;;;;;;;15.57;12.05;;;15.10;99.90;;;;;;6112288;23;20032;-87
2023/08/27 06:10:55;;;;;;;14.25;10.85;;;15.10;99.90;;;;;;6112840;23;20562;-89
2023/08/27 06:13:31;;;;;;;17.17;11.40;;;15.10;99.90;;;;;;6160486;23;20008;-87
2023/08/27 06:16:15;;;;;;;13.60;10.27;;;15.10;99.90;;;;;;6137499;23;20017;-87
2023/08/27 06:18:48;;;;;;;12.73;10.32;;;15.10;99.90;;;;;;6185411;23;20001;-87
2023/08/27 06:21:20;;;;;;;14.00;10.93;;;15.20;99.90;;;;;;6160894;23;20028;-88
2023/08/27 06:24:09;;;;;;;15.93;10.65;;;15.10;99.90;;;;;;6131581;23;20013;-88
2023/08/27 06:26:44;;;;;;;15.30;11.02;;;15.20;99.90;;;;;;6160491;23;20009;-89
2023/08/27 06:29:37;;;;;;;;;;;;;;;;;;;;;
2023/08/27 06:32:26;;;;;;;;;;;;;;;;;;;;;
2023/08/27 06:35:00;;;;;;;14.38;10.57;;;15.30;99.90;;;;;;6137362;23;20009;-88
2023/08/27 06:37:41;;;;;;;13.40;10.20;;;15.30;99.90;;;;;;6163505;23;20056;-88
2023/08/27 06:44:54;;;;;;;13.70;10.23;;;15.40;99.90;;;;;;6022628;23;20011;-88
2023/08/27 06:47:52;;;;;;;12.52;10.02;;;15.40;99.90;;;;;;5982223;23;20099;-87
2023/08/27 06:50:41;;;;;;;14.85;10.77;;;15.50;99.90;;;;;;6139104;23;20020;-87
2023/08/27 06:53:37;;;;;;;13.23;9.63;;;15.50;99.90;;;;;;6142044;23;20330;-88
2023/08/27 06:56:26;;;;;;;12.73;9.17;;;15.50;99.90;;;;;;6161808;23;20063;-88
2023/08/27 06:58:58;;;;;;;12.00;9.00;;;15.50;99.90;;;;;;6115495;23;20452;-87
2023/08/27 07:01:36;;;;;;;10.63;7.47;;;15.60;99.90;;;;;;6140360;23;20009;-88
2023/08/27 07:04:05;;;;;;;10.05;6.75;;;15.60;99.90;;;;;;6113851;23;20066;-87
2023/08/27 07:06:36;;;;;;;10.57;7.63;;;15.50;99.90;;;;;;6138396;23;20013;-87
2023/08/27 07:09:20;;;;;;;;;;;;;;;;;;;;;
2023/08/27 07:11:56;;;;;;;10.35;6.80;;;15.60;99.90;;;;;;6162799;23;20017;-88
2023/08/27 07:14:33;;;;;;;12.98;6.75;;;15.60;99.90;;;;;;6162971;23;20001;-87
2023/08/27 07:17:14;;;;;;;16.80;7.20;;;15.60;99.90;;;;;;6118914;23;20009;-87
2023/08/27 07:19:57;;;;;;;15.50;7.95;;;15.60;99.90;;;;;;6140019;23;20247;-89
2023/08/27 07:22:44;;;;;;;10.13;7.40;;;15.60;99.90;;;;;;6165919;23;20007;-87
2023/08/27 07:25:38;;;;;;;11.45;8.15;;;15.60;99.90;;;;;;6137996;23;20005;-87
2023/08/27 07:28:11;;;;;;;14.70;7.70;;;15.60;99.90;;;;;;6161412;23;20005;-90
2023/08/27 07:30:43;;;;;;;12.07;7.93;;;15.60;99.90;;;;;;6112068;23;20048;-87
2023/08/27 07:33:23;;;;;;;11.52;7.03;;;15.60;99.90;;;;;;6114544;23;20009;-88
2023/08/27 07:36:20;;;;;;;9.88;6.93;;;15.60;99.90;;;;;;6144124;23;20098;-89
2023/08/27 07:39:14;;;;;;;;;;;;;;;;;;;;;
2023/08/27 07:42:21;;;;;;;7.85;4.30;;;15.70;99.90;;;;;;6165636;23;20154;-87
2023/08/27 07:45:03;;;;;;;7.60;3.40;;;15.80;99.90;;;;;;6117013;23;20088;-87
2023/08/27 07:48:29;;;;;;;7.50;2.80;;;15.90;99.90;;;;;;6148931;23;20040;-88
2023/08/27 07:51:16;;;;;;;6.38;2.30;;;16.00;99.90;;;;;;6162185;23;20013;-87
2023/08/27 07:54:12;;;;;;;5.13;1.70;;;16.10;99.90;;;;;;6089897;23;20009;-88
2023/08/27 07:57:14;;;;;;;2.97;1.33;;;16.20;99.90;;;;;;6152065;23;20013;-89
2023/08/27 08:00:08;;;;;;;;;;;;;;;;;;;;;
2023/08/27 08:02:51;;;;;;;2.90;1.00;;;16.40;99.90;;;;;;6162059;23;20005;-87
2023/08/27 08:05:43;;;;;;;;;;;;;;;;;;;;;
2023/08/27 08:08:57;;;;;;;;;;;;;;;;;;;;;
2023/08/27 08:12:04;;;;;;;;;;;;;;;;;;;;;
2023/08/27 08:14:43;;;;;;;1.13;0.77;;;16.70;99.90;;;;;;6187461;23;20013;-87
2023/08/27 08:17:25;;;;;;;;;;;;;;;;;;;;;
2023/08/27 08:20:32;;;;;;;1.15;0.73;;;16.80;99.90;;;;;;6188495;23;20024;-87
2023/08/27 08:23:17;;;;;;;;;;;;;;;;;;;;;
2023/08/27 08:25:59;;;;;;;2.08;1.02;;;16.80;99.90;;;;;;6162418;23;20001;-86
2023/08/27 08:28:59;;;;;;;2.13;1.02;;;16.90;99.90;;;;;;6141070;23;20001;-88
2023/08/27 08:32:12;;;;;;;1.57;0.70;;;17.00;99.90;;;;;;6114340;23;20017;-87
2023/08/27 08:34:58;;;;;;;1.30;0.60;;;17.00;99.90;;;;;;6139240;23;20318;-88
2023/08/27 08:37:29;;;;;;;1.90;0.90;;;17.00;99.90;;;;;;6092500;23;20015;-86
2023/08/27 08:40:12;;;;;;;1.58;0.80;;;17.10;99.90;;;;;;6095577;23;20017;-87
2023/08/27 08:43:33;;;;;;;3.05;0.98;;;17.10;99.90;;;;;;6101396;23;20087;-88
2023/08/27 08:46:23;;;;;;;;;;;;;;;;;;;;;
2023/08/27 08:49:02;;;;;;;1.10;0.70;;;17.20;99.90;;;;;;6161864;23;20013;-87
2023/08/27 08:52:00;;;;;;;1.80;0.80;;;17.20;99.90;;;;;;6141333;23;20009;-87
2023/08/27 08:58:17;;;;;;;1.00;0.70;;;17.40;99.90;;;;;;6187730;23;20005;-88
2023/08/27 09:01:06;;;;;;;1.67;0.90;;;17.40;99.90;;;;;;6120378;23;20071;-87
2023/08/27 09:04:28;;;;;;;1.10;0.80;;;17.50;99.90;;;;;;6125700;23;20065;-88
2023/08/27 09:07:10;;;;;;;2.65;1.27;;;17.50;99.90;;;;;;6161688;23;20009;-88
2023/08/27 09:10:12;;;;;;;1.52;1.00;;;17.50;99.90;;;;;;6112890;23;20017;-88
2023/08/27 09:13:02;;;;;;;;;;;;;;;;;;;;;
2023/08/27 09:16:11;;;;;;;;;;;;;;;;;;;;;
2023/08/27 09:19:06;;;;;;;2.38;0.80;;;17.80;99.90;;;;;;6186851;23;20012;-89
2023/08/27 09:22:14;;;;;;;2.65;0.95;;;18.00;99.90;;;;;;6144382;23;20040;-90
2023/08/27 09:25:16;;;;;;;1.52;0.90;;;18.20;99.90;;;;;;6142163;23;20063;-89
2023/08/27 09:28:21;;;;;;;1.88;1.00;;;18.30;99.90;;;;;;6142757;23;20006;-88
2023/08/27 09:31:18;;;;;;;;;;;;;;;;;;;;;
2023/08/27 09:34:21;;;;;;;1.45;1.00;;;18.40;99.90;;;;;;6161770;23;20005;-89
2023/08/27 09:36:55;;;;;;;3.42;1.00;;;18.40;99.90;;;;;;6162450;23;20009;-90
2023/08/27 09:39:48;;;;;;;1.83;1.10;;;18.50;99.90;;;;;;6166046;23;20048;-88
2023/08/27 09:43:01;;;;;;;3.75;1.30;;;18.50;99.90;;;;;;6145883;23;20375;-87
2023/08/27 09:45:58;;;;;;;1.98;1.00;;;18.40;99.90;;;;;;6137937;23;20028;-90
2023/08/27 09:52:30;;;;;;;3.70;1.38;;;18.30;99.90;;;;;;6126595;23;20039;-88
2023/08/27 09:55:41;;;;;;;;;;;;;;;;;;;;;
2023/08/27 09:58:32;;;;;;;4.40;1.33;;;18.20;99.90;;;;;;6161913;23;20016;-90
2023/08/27 10:01:47;;;;;;;;;;;;;;;;;;;;;
2023/08/27 10:04:59;;;;;;;2.78;1.20;;;18.10;99.90;;;;;;6134868;23;20017;-89
2023/08/27 10:08:07;;;;;;;3.50;1.13;;;18.00;99.90;;;;;;6130492;23;20033;-88
2023/08/27 10:11:11;;;;;;;3.25;1.30;;;18.00;99.90;;;;;;6116357;23;20088;-88
2023/08/27 10:13:50;;;;;;;3.08;1.38;;;18.00;99.90;;;;;;6139169;23;20012;-88
2023/08/27 10:16:39;;;;;;;1.80;1.15;;;18.00;99.90;;;;;;6143667;23;20068;-87
2023/08/27 10:19:23;;;;;;;3.67;1.30;;;18.00;99.90;;;;;;6164088;23;20028;-88
2023/08/27 10:22:23;;;;;;;;;;;;;;;;;;;;;
2023/08/27 10:25:23;;;;;;;;;;;;;;;;;;;;;
2023/08/27 10:28:17;;;;;;;3.40;1.63;;;17.90;99.90;;;;;;6188685;23;20005;-88
2023/08/27 10:31:13;;;;;;;3.13;1.35;;;17.90;99.90;;;;;;6140574;23;20016;-88
2023/08/27 10:34:25;;;;;;;;;;;;;;;;;;;;;
2023/08/27 10:37:37;;;;;;;;;;;;;;;;;;;;;
2023/08/27 10:40:55;;;;;;;;;;;;;;;;;;;;;
2023/08/27 10:44:07;;;;;;;2.28;1.10;;;18.50;99.90;;;;;;6134375;23;20009;-88
2023/08/27 10:47:32;;;;;;;2.30;1.00;;;18.70;99.90;;;;;;6139958;23;20284;-88
2023/08/27 10:50:21;;;;;;;3.13;1.20;;;18.80;99.90;;;;;;6116535;23;20013;-88
2023/08/27 10:52:53;;;;;;;3.65;1.48;;;18.70;99.90;;;;;;6139340;23;20016;-88
2023/08/27 10:55:57;;;;;;;10.23;1.20;;;18.70;99.90;;;;;;6103988;23;20009;-87
2023/08/27 10:59:30;;;;;;;4.47;1.02;;;18.60;99.90;;;;;;6150982;23;20032;-88
2023/08/27 11:02:16;;;;;;;5.03;1.10;;;18.40;99.90;;;;;;6084635;23;20009;-87
2023/08/27 11:05:44;;;;;;;;;;;;;;;;;;;;;
2023/08/27 11:12:11;;;;;;;4.63;0.80;;;17.90;99.90;;;;;;6124147;23;20040;-88
2023/08/27 11:14:44;;;;;;;2.53;0.80;;;17.70;99.90;;;;;;6132825;23;20059;-88
2023/08/27 11:17:18;;;;;;;1.30;0.50;;;17.60;99.90;;;;;;6138598;23;20013;-88
2023/08/27 11:20:23;;;;;;;2.13;1.10;;;17.40;99.90;;;;;;6123296;23;20009;-88
2023/08/27 11:23:42;;;;;;;2.20;0.75;;;17.30;99.90;;;;;;6138032;23;20081;-87
2023/08/27 11:26:40;;;;;;;;;;;;;;;;;;;;;
2023/08/27 11:29:49;;;;;;;1.20;0.65;;;17.10;99.90;;;;;;6162808;23;20322;-88
2023/08/27 11:33:06;;;;;;;4.85;0.90;;;17.10;99.90;;;;;;6146302;23;20028;-87
2023/08/27 11:35:55;;;;;;;;;;;;;;;;;;;;;
2023/08/27 11:38:43;;;;;;;6.18;0.90;;;16.90;99.90;;;;;;6162339;23;20012;-88
2023/08/27 11:41:24;;;;;;;6.13;1.20;;;17.00;99.90;;;;;;6118539;23;20020;-89
2023/08/27 11:44:24;;;;;;;;;;;;;;;;;;;;;
2023/08/27 11:47:55;;;;;;;4.07;0.90;;;16.90;99.90;;;;;;6152941;23;20020;-88
2023/08/27 11:50:50;;;;;;;8.32;1.40;;;16.90;99.90;;;;;;6162554;23;20315;-88
2023/08/27 11:54:08;;;;;;;;;;;;;;;;;;;;;
2023/08/27 11:57:06;;;;;;;6.30;1.30;;;17.10;99.90;;;;;;6145006;23;20009;-87
2023/08/27 11:59:38;;;;;;;4.85;1.00;;;17.30;99.90;;;;;;6162412;23;20394;-87
2023/08/27 12:02:17;;;;;;;;;;;;;;;;;;;;;
2023/08/27 12:05:11;;;;;;;;;;;;;;;;;;;;;
2023/08/27 12:08:25;;;;;;;;;;;;;;;;;;;;;
2023/08/27 12:11:27;;;;;;;;;;;;;;;;;;;;;
2023/08/27 12:14:55;;;;;;;;;;;;;;;;;;;;;
2023/08/27 12:17:41;;;;;;;1.50;0.70;;;18.20;99.90;;;;;;6161258;23;20012;-90
2023/08/27 12:20:36;;;;;;;2.53;0.85;;;18.30;99.90;;;;;;6164248;23;20266;-87
2023/08/27 12:23:35;;;;;;;;;;;;;;;;;;;;;
2023/08/27 12:26:32;;;;;;;3.97;1.10;;;18.40;99.90;;;;;;6145302;23;20013;-91
2023/08/27 12:29:31;;;;;;;4.55;1.20;;;18.50;99.90;;;;;;6142549;23;20036;-92
2023/08/27 12:35:14;;;;;;;;;;;18.70;99.90;;;;;;6111956;23;20031;-88
2023/08/27 12:37:50;;;;;;;4.13;1.17;;;18.70;99.90;;;;;;6113849;23;19947;-88
2023/08/27 12:40:28;;;;;;;5.22;0.95;;;18.80;99.90;;;;;;6140290;23;20005;-88
2023/08/27 12:43:37;;;;;;;4.75;1.10;;;18.70;99.90;;;;;;6136871;23;20013;-88
2023/08/27 12:47:00;;;;;;;7.38;1.52;;;18.70;99.90;;;;;;6109719;23;20018;-88
2023/08/27 12:49:47;;;;;;;5.88;1.10;;;18.80;99.90;;;;;;6162318;23;20437;-87
2023/08/27 12:52:35;;;;;;;;;;;18.70;99.90;;;;;;6115761;23;20016;-88
2023/08/27 12:55:24;;;;;;;3.30;0.90;;;18.90;99.90;;;;;;6085104;23;19904;-87
2023/08/27 12:57:58;;;;;;;4.18;1.20;;;19.00;99.90;;;;;;6162817;23;20079;-87
2023/08/27 13:00:39;;;;;;;9.70;1.30;;;19.10;99.90;;;;;;6138670;23;19997;-87
2023/08/27 13:03:42;;;;;;;;;;;;;;;;;;;;;
2023/08/27 13:06:24;;;;;;;3.67;1.10;;;19.30;99.90;;;;;;6137925;23;20258;-87
2023/08/27 13:09:42;;;;;;;;;;;;;;;;;;;;;
2023/08/27 13:12:40;;;;;;;;;;;;;;;;;;;;;
2023/08/27 13:15:23;;;;;;;5.97;1.27;;;19.30;99.90;;;;;;6162460;23;20099;-88
2023/08/27 13:17:56;;;;;;;2.33;0.82;;;19.10;99.90;;;;;;6137549;23;20019;-87
2023/08/27 13:20:47;;;;;;;;;;;;;;;;;;;;;
2023/08/27 13:23:56;;;;;;;;;;;;;;;;;;;;;
2023/08/27 13:27:02;;;;;;;5.57;1.10;;;18.90;99.90;;;;;;6161554;23;20079;-88
2023/08/27 13:30:07;;;;;;;3.05;1.10;;;18.90;99.90;;;;;;6145007;23;20009;-87
2023/08/27 13:32:41;;;;;;;3.70;0.90;;;18.90;99.90;;;;;;6113745;23;20032;-88
2023/08/27 13:35:22;;;;;;;3.15;1.08;;;18.90;99.90;;;;;;6138685;23;20084;-87
2023/08/27 13:38:09;;;;;;;5.43;1.20;;;18.80;99.90;;;;;;6138544;23;20009;-87
2023/08/27 13:40:43;;;;;;;2.25;1.00;;;18.80;99.90;;;;;;6137618;23;20005;-88
2023/08/27 13:43:35;;;;;;;2.63;1.00;;;18.80;99.90;;;;;;6122472;23;20081;-87
2023/08/27 13:47:03;;;;;;;4.55;1.52;;;18.90;99.90;;;;;;6103275;23;20016;-88
2023/08/27 13:49:44;;;;;;;3.60;1.10;;;19.00;99.90;;;;;;6165154;23;20065;-88
2023/08/27 13:52:39;;;;;;;2.22;1.10;;;19.10;99.90;;;;;;6140541;23;20009;-87
2023/08/27 13:55:06;;;;;;;5.32;1.00;;;19.20;99.90;;;;;;6138940;23;20009;-87
2023/08/27 13:57:46;;;;;;;4.50;1.17;;;19.20;99.90;;;;;;6141116;23;20009;-88
2023/08/27 14:00:36;;;;;;;;;;;;;;;;;;;;;
2023/08/27 14:03:33;;;;;;;5.80;1.27;;;18.70;99.90;;;;;;6164617;23;20084;-91
2023/08/27 14:09:46;;;;;;;;;;;;;;;;;;;;;
2023/08/27 14:12:49;;;;;;;3.80;1.10;;;17.70;99.90;;;;;;6164031;23;20013;-90
2023/08/27 14:16:06;;;;;;;2.40;1.10;;;17.50;99.90;;;;;;6151455;23;20025;-89
2023/08/27 14:19:08;;;;;;;5.88;1.63;;;17.30;99.90;;;;;;6141589;23;20104;-90
2023/08/27 14:22:29;;;;;;;5.53;1.40;;;17.20;99.90;;;;;;6142473;23;20084;-89
2023/08/27 14:25:56;;;;;;;3.30;1.10;;;17.20;99.90;;;;;;6146954;23;20013;-90
2023/08/27 14:28:51;;;;;;;;;;;;;;;;;;;;;
2023/08/27 14:32:02;;;;;;;3.90;1.50;;;17.50;99.90;;;;;;6140501;23;20104;-89
2023/08/27 14:34:53;;;;;;;;;;;;;;;;;;;;;
2023/08/27 14:38:05;;;;;;;2.95;1.10;;;17.80;99.90;;;;;;6131934;23;20275;-88
2023/08/27 14:41:23;;;;;;;5.78;1.10;;;17.90;99.90;;;;;;6164754;23;20009;-90
2023/08/27 14:47:34;;;;;;;3.42;1.10;;;18.00;99.90;;;;;;6144958;23;20017;-88
2023/08/27 14:50:37;;;;;;;5.05;1.67;;;18.20;99.90;;;;;;6148277;23;20005;-89
2023/08/27 14:53:30;;;;;;;5.68;1.48;;;18.30;99.90;;;;;;6093496;23;20017;-88
2023/08/27 14:56:43;;;;;;;7.20;1.70;;;18.50;99.90;;;;;;6116380;23;20072;-89
2023/08/27 15:00:11;;;;;;;3.60;1.17;;;18.60;99.90;;;;;;6160688;23;20024;-87
2023/08/27 15:03:05;;;;;;;2.33;0.90;;;18.60;99.90;;;;;;6146073;23;20013;-88
2023/08/27 15:06:03;;;;;;;;;;;;;;;;;;;;;
2023/08/27 15:08:56;;;;;;;3.53;1.10;;;18.60;99.90;;;;;;6157618;23;20252;-88
2023/08/27 15:11:33;;;;;;;2.13;0.90;;;18.80;99.90;;;;;;6139907;23;20016;-90
2023/08/27 15:14:24;;;;;;;1.88;0.90;;;18.90;99.90;;;;;;6163046;23;20011;-88
2023/08/27 15:17:29;;;;;;;3.60;1.00;;;18.80;99.90;;;;;;6117694;23;20009;-88
2023/08/27 15:20:19;;;;;;;;;;;;;;;;;;;;;
2023/08/27 15:23:03;;;;;;;4.10;1.33;;;18.70;99.90;;;;;;6142997;23;20383;-91
2023/08/27 15:26:04;;;;;;;;;;;;;;;;;;;;;
2023/08/27 15:28:52;;;;;;;1.52;1.02;;;18.40;99.90;;;;;;6147302;23;20016;-89
2023/08/27 15:31:54;;;;;;;2.08;0.80;;;18.10;99.90;;;;;;6163127;23;20036;-89
2023/08/27 15:34:42;;;;;;;4.20;1.08;;;18.00;99.90;;;;;;6140484;23;20005;-89
2023/08/27 15:37:24;;;;;;;2.67;1.08;;;18.10;99.90;;;;;;6094734;23;20100;-89